Malagon, Spain
Current Conditions -  °F | °C
As of 11:00 PM on Wednesday 28 Jan 2015 (Local Time) from LEAO Reporting Station
Clear Clear  
Wind Chill:   Ceiling: Unl
Heat Index:   Visibility: 6mi
Dew Point:   Wind: 7mph
Humidity: 76%   Direction: 230°SW
Pressure: 30.21"   Gusts: NA
Location:  39.17°N, 3.85°W
Report Text: LEAO 282200Z 23006KT 190V260 CAVOK 05/01 Q1023
Loading
Personal Weather Stations






























Interactive Weather Map New forecast layout! Learn more

10-Day Weather Forecast

Advertisements
Track Severe Weather on mobile